Weather at Papa Stour Airport

Public forecast

Using degrees Celsius for public forecast. Weather courtesy of forecast.io.

Closest aviation weather report (METAR) to Papa Stour Airport

Closest report is Sumburgh Airport, 29.1 nm (53.9 km) SSE.

2024/07/21 06:50 (retrieved 28 minutes ago)

EGPB 210650Z AUTO 30014KT 4300 RA BKN004/// OVC039/// 11/10 Q1000 REDZ

Closest aviation forecast (TAF) to Papa Stour Airport

Closest forecast is Gullfaks C Helipad, 128.0 nm (237.0 km) ENE.

2024/07/21 06:36 (retrieved 42 minutes ago)

TAF ENGC 210500Z 2106/2206 15040KT 9999 BKN035 TEMPO 2106/2113 SHRA BKN014CB PROB40 TEMPO 2107/2111 4000 TSRA BKN009 PROB30 2111/2113 18025KT 0800 FG VV002 BECMG 2112/2114 26020KT TEMPO 2113/2206 BKN012 BECMG 2200/2203 27008KT